createdAt,value
2023-11-23T04:56:41.824Z,101224.50
2023-11-23T04:59:44.818Z,101226.16
2023-11-23T05:02:47.875Z,101226.50
2023-11-23T05:05:50.994Z,101228.22
2023-11-23T05:08:53.859Z,101226.87
2023-11-23T05:11:59.399Z,101230.88
2023-11-23T05:15:02.880Z,101221.66
2023-11-23T05:18:06.419Z,101227.22
2023-11-23T05:21:09.495Z,101234.31
2023-11-23T05:24:12.634Z,101232.00
2023-11-23T05:27:15.393Z,101230.28
2023-11-23T05:30:19.901Z,101235.69
2023-11-23T05:33:26.088Z,101240.69
2023-11-23T05:36:29.554Z,101246.78
2023-11-23T05:39:32.309Z,101239.59
2023-11-23T05:42:35.828Z,101239.00
2023-11-23T05:45:38.659Z,101234.63
2023-11-23T05:48:41.945Z,101240.41
2023-11-23T05:51:45.458Z,101241.59
2023-11-23T05:54:52.158Z,101231.25
2023-11-23T05:57:55.015Z,101241.09
2023-11-23T06:01:06.997Z,101244.09
2023-11-23T06:04:13.944Z,101240.41
2023-11-23T06:07:17.163Z,101236.91
2023-11-23T06:10:20.240Z,101236.66
2023-11-23T06:13:23.123Z,101231.19
2023-11-23T06:16:26.512Z,101227.94
2023-11-23T06:19:29.486Z,101229.91
2023-11-23T06:22:33.234Z,101229.31
2023-11-23T06:25:36.179Z,101225.34
2023-11-23T06:28:39.527Z,101223.37
2023-11-23T06:31:43.119Z,101227.41
2023-11-23T06:34:46.365Z,101240.34
2023-11-23T06:37:49.309Z,101248.66
2023-11-23T06:40:52.261Z,101255.50
2023-11-23T06:43:54.983Z,101247.84
2023-11-23T06:46:57.920Z,101230.09
2023-11-23T06:50:02.048Z,101227.25
2023-11-23T06:53:05.356Z,101225.00
2023-11-23T06:56:11.185Z,101217.44
2023-11-23T06:59:14.431Z,101207.25
2023-11-23T07:02:17.452Z,101206.06
2023-11-23T07:05:20.863Z,101209.25
2023-11-23T07:08:23.713Z,101209.44
2023-11-23T07:11:26.649Z,101207.22
2023-11-23T07:14:29.729Z,101216.53
2023-11-23T07:17:32.935Z,101211.62
2023-11-23T07:20:35.898Z,101219.59
2023-11-23T07:23:39.348Z,101217.97
2023-11-23T07:26:42.208Z,101217.19
2023-11-23T07:29:46.390Z,101210.88
2023-11-23T07:32:49.028Z,101211.72
2023-11-23T07:35:52.400Z,101208.56
2023-11-23T07:38:55.346Z,101203.81
2023-11-23T07:41:58.439Z,101209.69
2023-11-23T07:45:01.397Z,101209.31
2023-11-23T07:48:10.500Z,101207.06
2023-11-23T07:51:14.525Z,101206.22
2023-11-23T07:54:17.769Z,101214.06
2023-11-23T07:57:20.606Z,101207.72
2023-11-23T08:00:23.694Z,101192.63
2023-11-23T08:03:26.886Z,101202.25
2023-11-23T08:06:29.755Z,101200.66
2023-11-23T08:09:33.178Z,101187.84
2023-11-23T08:12:36.125Z,101191.16
2023-11-23T08:15:39.244Z,101185.91
2023-11-23T08:18:49.601Z,101191.16
2023-11-23T08:21:53.658Z,101176.06
2023-11-23T08:24:56.610Z,101185.41
2023-11-23T08:27:59.892Z,101171.47
2023-11-23T08:31:02.575Z,101176.13
2023-11-23T08:34:42.568Z,101167.84
2023-11-23T08:37:47.539Z,101161.44
2023-11-23T08:40:50.725Z,101151.03
2023-11-23T08:43:53.419Z,101151.87
2023-11-23T08:46:58.531Z,101142.59
2023-11-23T08:50:03.904Z,101149.03
2023-11-23T08:53:07.012Z,101150.62
2023-11-23T08:56:09.777Z,101150.16
2023-11-23T08:59:13.876Z,101148.59
2023-11-23T09:02:20.810Z,101148.13
2023-11-23T09:05:24.788Z,101162.72
2023-11-23T09:08:27.828Z,101166.50
2023-11-23T09:11:31.830Z,101163.38
2023-11-23T09:14:46.156Z,101146.44
2023-11-23T09:17:52.473Z,101145.47
2023-11-23T09:20:58.390Z,101140.53
2023-11-23T09:24:04.161Z,101134.22
2023-11-23T09:27:11.334Z,101137.16
2023-11-23T09:30:14.586Z,101123.94
2023-11-23T09:33:20.479Z,101114.78
2023-11-23T09:36:24.854Z,101119.00
2023-11-23T09:39:28.935Z,101118.56
2023-11-23T09:42:37.066Z,101119.59
2023-11-23T09:45:40.216Z,101118.91
2023-11-23T09:48:45.451Z,101119.03
2023-11-23T09:51:50.764Z,101114.53
2023-11-23T09:54:57.921Z,101115.31
2023-11-23T09:58:00.541Z,101107.56
2023-11-23T10:01:04.527Z,101096.03
2023-11-23T10:04:07.916Z,101100.06
2023-11-23T10:07:13.198Z,101088.69
2023-11-23T10:10:16.833Z,101083.09
2023-11-23T10:13:20.591Z,101083.19
2023-11-23T10:16:23.504Z,101077.50
2023-11-23T10:19:26.570Z,101073.75
2023-11-23T10:22:31.999Z,101065.28
2023-11-23T10:25:35.960Z,101058.84
2023-11-23T10:28:39.801Z,101063.34
2023-11-23T10:31:42.727Z,101059.31
2023-11-23T10:34:46.504Z,101046.63
2023-11-23T10:37:55.100Z,101039.94
2023-11-23T10:41:00.039Z,101028.00
2023-11-23T10:44:04.562Z,101028.00
2023-11-23T10:47:08.761Z,101026.38
2023-11-23T10:50:13.029Z,101024.72
2023-11-23T10:53:17.276Z,101006.59
2023-11-23T10:56:23.992Z,101006.44
2023-11-23T10:59:28.957Z,100994.62
2023-11-23T11:02:32.877Z,100999.37
2023-11-23T11:05:38.697Z,101000.88
2023-11-23T11:08:49.461Z,100988.56
2023-11-23T11:11:57.383Z,100983.56
2023-11-23T11:15:04.479Z,100971.97
2023-11-23T11:18:11.404Z,100973.59
2023-11-23T11:21:17.492Z,100956.19
2023-11-23T11:24:22.893Z,100955.59
2023-11-23T11:27:29.879Z,100949.91
2023-11-23T11:30:38.751Z,100948.63
2023-11-23T11:33:42.357Z,100944.34
2023-11-23T11:36:47.506Z,100941.53
2023-11-23T11:39:52.353Z,100920.25
2023-11-23T11:42:57.204Z,100922.88
2023-11-23T11:46:00.027Z,100904.50
2023-11-23T11:49:03.541Z,100908.00
2023-11-23T11:52:13.441Z,100895.34
2023-11-23T11:55:16.798Z,100896.09
2023-11-23T11:58:20.941Z,100889.72
2023-11-23T12:01:24.001Z,100876.66
2023-11-23T12:04:27.272Z,100876.91
2023-11-23T12:07:30.152Z,100871.72
2023-11-23T12:10:41.325Z,100878.03
2023-11-23T12:13:46.486Z,100862.84
2023-11-23T12:16:50.735Z,100868.81
2023-11-23T12:19:55.480Z,100849.41
2023-11-23T12:23:04.657Z,100845.03
2023-11-23T12:26:07.361Z,100841.31
2023-11-23T12:29:10.352Z,100845.50
2023-11-23T12:32:13.284Z,100839.84
2023-11-23T12:35:16.829Z,100831.03
2023-11-23T12:38:19.581Z,100825.72
2023-11-23T12:41:23.174Z,100809.19
2023-11-23T12:44:26.756Z,100806.19
2023-11-23T12:47:31.522Z,100799.59
2023-11-23T12:50:34.551Z,100793.25
2023-11-23T12:53:37.624Z,100788.16
2023-11-23T12:56:40.662Z,100792.63
2023-11-23T12:59:43.863Z,100779.94
2023-11-23T13:02:46.747Z,100778.25
2023-11-23T13:05:54.218Z,100774.97
2023-11-23T13:08:57.401Z,100766.81
2023-11-23T13:12:04.868Z,100766.75
2023-11-23T13:15:13.522Z,100766.31
2023-11-23T13:18:17.013Z,100755.25
2023-11-23T13:21:21.049Z,100747.97
2023-11-23T13:24:25.816Z,100744.97
2023-11-23T13:27:29.195Z,100741.63
2023-11-23T13:30:32.862Z,100734.66
2023-11-23T13:33:36.104Z,100738.19
2023-11-23T13:36:39.668Z,100720.78
2023-11-23T13:39:42.996Z,100720.88
2023-11-23T13:42:46.404Z,100721.50
2023-11-23T13:45:51.240Z,100706.94
2023-11-23T13:48:54.681Z,100696.44
2023-11-23T13:51:58.378Z,100690.06
2023-11-23T13:55:01.569Z,100675.25
2023-11-23T13:58:06.929Z,100674.78
2023-11-23T14:01:13.859Z,100667.00
2023-11-23T14:04:17.469Z,100664.28
2023-11-23T14:07:20.616Z,100656.72
2023-11-23T14:10:24.080Z,100648.88
2023-11-23T14:13:27.455Z,100648.62
2023-11-23T14:16:36.039Z,100645.00
2023-11-23T14:19:39.886Z,100649.22
2023-11-23T14:22:47.913Z,100640.25
2023-11-23T14:25:51.855Z,100628.75
2023-11-23T14:28:55.720Z,100617.09
2023-11-23T14:31:58.819Z,100625.69
2023-11-23T14:35:02.692Z,100621.44
2023-11-23T14:38:06.910Z,100613.28
2023-11-23T14:41:12.809Z,100604.28
2023-11-23T14:44:16.318Z,100616.50
2023-11-23T14:47:27.709Z,100613.84
2023-11-23T14:50:33.075Z,100612.84
2023-11-23T14:53:36.936Z,100608.91
2023-11-23T14:56:43.638Z,100596.13
2023-11-23T14:59:50.358Z,100602.59
2023-11-23T15:02:53.993Z,100597.53
2023-11-23T15:05:57.698Z,100596.25
2023-11-23T15:09:01.118Z,100592.47
2023-11-23T15:12:04.970Z,100577.69
2023-11-23T15:15:08.858Z,100585.81
2023-11-23T15:18:12.953Z,100575.97
2023-11-23T15:21:17.251Z,100569.41
2023-11-23T15:24:22.415Z,100568.81
2023-11-23T15:27:30.369Z,100563.16
2023-11-23T15:30:34.462Z,100563.44
2023-11-23T15:33:37.721Z,100558.34
2023-11-23T15:36:41.396Z,100553.06
2023-11-23T15:39:45.421Z,100549.81
2023-11-23T15:42:49.858Z,100544.47
2023-11-23T15:45:53.445Z,100543.72
2023-11-23T15:48:57.378Z,100542.97
2023-11-23T15:52:01.221Z,100533.19
2023-11-23T15:55:09.970Z,100539.91
2023-11-23T15:58:13.588Z,100534.03
2023-11-23T16:01:25.002Z,100530.19
2023-11-23T16:04:28.834Z,100527.53
2023-11-23T16:07:33.278Z,100532.47
2023-11-23T16:10:37.146Z,100531.06
2023-11-23T16:13:43.825Z,100530.62
2023-11-23T16:16:48.331Z,100526.41
2023-11-23T16:19:51.871Z,100538.16
2023-11-23T16:22:56.382Z,100535.59
2023-11-23T16:25:59.890Z,100532.59
2023-11-23T16:29:06.007Z,100531.09
2023-11-23T16:32:10.122Z,100523.50
2023-11-23T16:35:13.940Z,100539.63
2023-11-23T16:38:17.310Z,100528.66
2023-11-23T16:41:21.953Z,100529.41
2023-11-23T16:44:25.617Z,100527.63
2023-11-23T16:47:29.783Z,100514.63
2023-11-23T16:50:33.487Z,100513.31
2023-11-23T16:53:39.128Z,100501.09
2023-11-23T16:56:43.001Z,100486.91
2023-11-23T16:59:48.591Z,100496.91
